sensor_id;sensor_type;location;lat;lon;timestamp;P1;durP1;ratioP1;P2;durP2;ratioP2
8562;SDS011;16392;52.508;13.468;2022-08-19T00:00:06;474.35;;;241.60;;
8562;SDS011;16392;52.508;13.468;2022-08-19T00:02:36;471.75;;;238.10;;
8562;SDS011;16392;52.508;13.468;2022-08-19T00:05:03;476.67;;;242.98;;
8562;SDS011;16392;52.508;13.468;2022-08-19T00:07:31;478.10;;;250.35;;
8562;SDS011;16392;52.508;13.468;2022-08-19T00:09:57;475.63;;;252.45;;
8562;SDS011;16392;52.508;13.468;2022-08-19T00:12:24;476.23;;;257.20;;
8562;SDS011;16392;52.508;13.468;2022-08-19T00:14:50;476.52;;;246.18;;
8562;SDS011;16392;52.508;13.468;2022-08-19T00:17:19;474.20;;;234.90;;
8562;SDS011;16392;52.508;13.468;2022-08-19T00:19:48;473.60;;;242.18;;
8562;SDS011;16392;52.508;13.468;2022-08-19T00:22:15;475.20;;;246.38;;
8562;SDS011;16392;52.508;13.468;2022-08-19T00:24:43;474.25;;;249.68;;
8562;SDS011;16392;52.508;13.468;2022-08-19T00:27:10;474.15;;;250.38;;
8562;SDS011;16392;52.508;13.468;2022-08-19T00:29:37;473.25;;;238.65;;
8562;SDS011;16392;52.508;13.468;2022-08-19T00:32:04;475.75;;;250.18;;
8562;SDS011;16392;52.508;13.468;2022-08-19T00:34:31;470.67;;;237.55;;
8562;SDS011;16392;52.508;13.468;2022-08-19T00:36:59;472.17;;;243.63;;
8562;SDS011;16392;52.508;13.468;2022-08-19T00:39:26;470.27;;;232.75;;
8562;SDS011;16392;52.508;13.468;2022-08-19T00:41:52;468.73;;;239.93;;
8562;SDS011;16392;52.508;13.468;2022-08-19T00:44:20;472.80;;;241.85;;
8562;SDS011;16392;52.508;13.468;2022-08-19T00:46:49;473.90;;;243.95;;
8562;SDS011;16392;52.508;13.468;2022-08-19T00:49:18;470.50;;;234.07;;
8562;SDS011;16392;52.508;13.468;2022-08-19T00:51:50;470.95;;;232.95;;
8562;SDS011;16392;52.508;13.468;2022-08-19T00:54:21;462.23;;;219.07;;
8562;SDS011;16392;52.508;13.468;2022-08-19T00:56:48;466.00;;;214.48;;
8562;SDS011;16392;52.508;13.468;2022-08-19T00:59:15;469.85;;;224.55;;
8562;SDS011;16392;52.508;13.468;2022-08-19T01:01:43;458.10;;;218.85;;
8562;SDS011;16392;52.508;13.468;2022-08-19T01:04:11;459.55;;;216.77;;
8562;SDS011;16392;52.508;13.468;2022-08-19T01:06:38;466.60;;;232.93;;
8562;SDS011;16392;52.508;13.468;2022-08-19T01:09:06;466.00;;;216.15;;
8562;SDS011;16392;52.508;13.468;2022-08-19T01:11:36;466.23;;;226.50;;
8562;SDS011;16392;52.508;13.468;2022-08-19T01:14:07;458.90;;;211.35;;
8562;SDS011;16392;52.508;13.468;2022-08-19T01:16:34;457.52;;;210.60;;
8562;SDS011;16392;52.508;13.468;2022-08-19T01:19:02;461.95;;;215.18;;
8562;SDS011;16392;52.508;13.468;2022-08-19T01:21:30;457.67;;;204.45;;
8562;SDS011;16392;52.508;13.468;2022-08-19T01:24:01;464.08;;;217.05;;
8562;SDS011;16392;52.508;13.468;2022-08-19T01:26:28;463.23;;;222.38;;
8562;SDS011;16392;52.508;13.468;2022-08-19T01:28:56;460.90;;;212.35;;
8562;SDS011;16392;52.508;13.468;2022-08-19T01:31:26;461.98;;;215.05;;
8562;SDS011;16392;52.508;13.468;2022-08-19T01:33:56;462.60;;;206.63;;
8562;SDS011;16392;52.508;13.468;2022-08-19T01:36:24;460.98;;;222.90;;
8562;SDS011;16392;52.508;13.468;2022-08-19T01:38:55;457.77;;;213.25;;
8562;SDS011;16392;52.508;13.468;2022-08-19T01:41:25;457.80;;;211.93;;
8562;SDS011;16392;52.508;13.468;2022-08-19T01:43:52;461.83;;;214.13;;
8562;SDS011;16392;52.508;13.468;2022-08-19T01:46:21;459.92;;;221.68;;
8562;SDS011;16392;52.508;13.468;2022-08-19T01:48:48;458.85;;;216.60;;
8562;SDS011;16392;52.508;13.468;2022-08-19T01:51:15;454.95;;;210.48;;
8562;SDS011;16392;52.508;13.468;2022-08-19T01:53:42;458.83;;;208.07;;
8562;SDS011;16392;52.508;13.468;2022-08-19T01:56:12;451.10;;;194.60;;
8562;SDS011;16392;52.508;13.468;2022-08-19T01:58:41;453.33;;;189.63;;
8562;SDS011;16392;52.508;13.468;2022-08-19T02:01:15;455.58;;;197.13;;
8562;SDS011;16392;52.508;13.468;2022-08-19T02:03:42;456.13;;;210.95;;
8562;SDS011;16392;52.508;13.468;2022-08-19T02:06:09;454.90;;;193.65;;
8562;SDS011;16392;52.508;13.468;2022-08-19T02:08:36;455.20;;;200.10;;
8562;SDS011;16392;52.508;13.468;2022-08-19T02:11:05;455.58;;;195.43;;
8562;SDS011;16392;52.508;13.468;2022-08-19T02:13:33;456.42;;;201.05;;
8562;SDS011;16392;52.508;13.468;2022-08-19T02:16:01;451.10;;;195.73;;
8562;SDS011;16392;52.508;13.468;2022-08-19T02:18:28;459.40;;;211.27;;
8562;SDS011;16392;52.508;13.468;2022-08-19T02:20:55;458.77;;;216.40;;
8562;SDS011;16392;52.508;13.468;2022-08-19T02:23:21;456.35;;;202.07;;
8562;SDS011;16392;52.508;13.468;2022-08-19T02:25:48;451.40;;;193.05;;
8562;SDS011;16392;52.508;13.468;2022-08-19T02:28:15;456.27;;;209.52;;
8562;SDS011;16392;52.508;13.468;2022-08-19T02:30:42;455.10;;;202.15;;
8562;SDS011;16392;52.508;13.468;2022-08-19T02:33:10;450.52;;;195.82;;
8562;SDS011;16392;52.508;13.468;2022-08-19T02:35:36;456.98;;;205.05;;
8562;SDS011;16392;52.508;13.468;2022-08-19T02:38:06;455.00;;;206.55;;
8562;SDS011;16392;52.508;13.468;2022-08-19T02:40:52;451.15;;;193.07;;
8562;SDS011;16392;52.508;13.468;2022-08-19T02:43:20;451.88;;;202.85;;
8562;SDS011;16392;52.508;13.468;2022-08-19T02:45:48;453.48;;;206.70;;
8562;SDS011;16392;52.508;13.468;2022-08-19T02:48:18;455.85;;;211.52;;
8562;SDS011;16392;52.508;13.468;2022-08-19T02:50:45;453.65;;;199.93;;
8562;SDS011;16392;52.508;13.468;2022-08-19T02:53:13;449.95;;;194.68;;
8562;SDS011;16392;52.508;13.468;2022-08-19T02:55:43;445.17;;;185.55;;
8562;SDS011;16392;52.508;13.468;2022-08-19T02:58:12;455.38;;;202.65;;
8562;SDS011;16392;52.508;13.468;2022-08-19T03:00:42;451.40;;;200.85;;
8562;SDS011;16392;52.508;13.468;2022-08-19T03:03:10;452.08;;;205.88;;
8562;SDS011;16392;52.508;13.468;2022-08-19T03:05:38;453.33;;;206.00;;
8562;SDS011;16392;52.508;13.468;2022-08-19T03:08:05;453.75;;;204.23;;
8562;SDS011;16392;52.508;13.468;2022-08-19T03:10:33;453.58;;;205.02;;
8562;SDS011;16392;52.508;13.468;2022-08-19T03:13:08;452.27;;;194.40;;
8562;SDS011;16392;52.508;13.468;2022-08-19T03:15:38;447.58;;;188.38;;
8562;SDS011;16392;52.508;13.468;2022-08-19T03:18:05;454.08;;;205.63;;
8562;SDS011;16392;52.508;13.468;2022-08-19T03:20:32;450.23;;;196.38;;
8562;SDS011;16392;52.508;13.468;2022-08-19T03:23:00;454.20;;;202.32;;
8562;SDS011;16392;52.508;13.468;2022-08-19T03:25:26;448.95;;;189.95;;
8562;SDS011;16392;52.508;13.468;2022-08-19T03:27:53;449.85;;;193.60;;
8562;SDS011;16392;52.508;13.468;2022-08-19T03:30:20;455.00;;;200.73;;
8562;SDS011;16392;52.508;13.468;2022-08-19T03:32:46;450.45;;;196.65;;
8562;SDS011;16392;52.508;13.468;2022-08-19T03:35:13;448.48;;;184.10;;
8562;SDS011;16392;52.508;13.468;2022-08-19T03:37:40;446.80;;;186.85;;
8562;SDS011;16392;52.508;13.468;2022-08-19T03:40:08;453.00;;;190.40;;
8562;SDS011;16392;52.508;13.468;2022-08-19T03:42:35;450.20;;;195.95;;
8562;SDS011;16392;52.508;13.468;2022-08-19T03:45:02;450.20;;;192.95;;
8562;SDS011;16392;52.508;13.468;2022-08-19T03:47:30;447.45;;;184.02;;
8562;SDS011;16392;52.508;13.468;2022-08-19T03:49:56;451.40;;;189.20;;
8562;SDS011;16392;52.508;13.468;2022-08-19T03:52:23;454.65;;;209.40;;
8562;SDS011;16392;52.508;13.468;2022-08-19T03:54:49;445.70;;;187.77;;
8562;SDS011;16392;52.508;13.468;2022-08-19T03:57:17;447.88;;;187.38;;
8562;SDS011;16392;52.508;13.468;2022-08-19T03:59:44;447.75;;;180.93;;
8562;SDS011;16392;52.508;13.468;2022-08-19T04:02:11;450.67;;;189.48;;
8562;SDS011;16392;52.508;13.468;2022-08-19T04:04:38;448.60;;;186.38;;
8562;SDS011;16392;52.508;13.468;2022-08-19T04:07:06;446.42;;;188.27;;
8562;SDS011;16392;52.508;13.468;2022-08-19T04:09:34;456.42;;;202.07;;
8562;SDS011;16392;52.508;13.468;2022-08-19T04:12:02;447.13;;;188.95;;
8562;SDS011;16392;52.508;13.468;2022-08-19T04:14:31;451.20;;;187.10;;
8562;SDS011;16392;52.508;13.468;2022-08-19T04:17:00;453.70;;;200.10;;
8562;SDS011;16392;52.508;13.468;2022-08-19T04:19:28;457.58;;;202.90;;
8562;SDS011;16392;52.508;13.468;2022-08-19T04:21:56;452.45;;;195.07;;
8562;SDS011;16392;52.508;13.468;2022-08-19T04:24:23;454.48;;;195.68;;
8562;SDS011;16392;52.508;13.468;2022-08-19T04:26:50;456.45;;;197.23;;
8562;SDS011;16392;52.508;13.468;2022-08-19T04:29:18;454.77;;;192.63;;
8562;SDS011;16392;52.508;13.468;2022-08-19T04:31:51;448.35;;;183.77;;
8562;SDS011;16392;52.508;13.468;2022-08-19T04:34:19;454.13;;;203.32;;
8562;SDS011;16392;52.508;13.468;2022-08-19T04:36:49;452.63;;;197.10;;
8562;SDS011;16392;52.508;13.468;2022-08-19T04:39:18;450.63;;;197.23;;
8562;SDS011;16392;52.508;13.468;2022-08-19T04:41:46;457.75;;;203.55;;
8562;SDS011;16392;52.508;13.468;2022-08-19T04:44:31;464.70;;;202.65;;
8562;SDS011;16392;52.508;13.468;2022-08-19T04:47:00;456.10;;;198.25;;
8562;SDS011;16392;52.508;13.468;2022-08-19T04:49:30;452.65;;;199.70;;
8562;SDS011;16392;52.508;13.468;2022-08-19T04:51:57;454.42;;;194.48;;
8562;SDS011;16392;52.508;13.468;2022-08-19T04:54:24;457.20;;;210.00;;
8562;SDS011;16392;52.508;13.468;2022-08-19T04:56:52;452.52;;;199.35;;
8562;SDS011;16392;52.508;13.468;2022-08-19T04:59:19;462.45;;;215.73;;
8562;SDS011;16392;52.508;13.468;2022-08-19T05:01:47;458.50;;;203.50;;
8562;SDS011;16392;52.508;13.468;2022-08-19T05:04:17;461.30;;;217.75;;
8562;SDS011;16392;52.508;13.468;2022-08-19T05:06:45;458.92;;;209.15;;
8562;SDS011;16392;52.508;13.468;2022-08-19T05:09:13;457.67;;;212.23;;
8562;SDS011;16392;52.508;13.468;2022-08-19T05:11:42;461.25;;;216.30;;
8562;SDS011;16392;52.508;13.468;2022-08-19T05:14:09;463.38;;;211.35;;
8562;SDS011;16392;52.508;13.468;2022-08-19T05:16:38;463.05;;;217.10;;
8562;SDS011;16392;52.508;13.468;2022-08-19T05:19:06;465.73;;;221.10;;
8562;SDS011;16392;52.508;13.468;2022-08-19T05:21:52;468.90;;;226.52;;
8562;SDS011;16392;52.508;13.468;2022-08-19T05:24:37;476.88;;;241.38;;
8562;SDS011;16392;52.508;13.468;2022-08-19T05:27:04;479.13;;;252.50;;
8562;SDS011;16392;52.508;13.468;2022-08-19T05:29:31;479.10;;;256.10;;
8562;SDS011;16392;52.508;13.468;2022-08-19T05:32:00;482.65;;;271.42;;
8562;SDS011;16392;52.508;13.468;2022-08-19T05:34:30;488.02;;;274.77;;
8562;SDS011;16392;52.508;13.468;2022-08-19T05:37:00;489.05;;;288.27;;
8562;SDS011;16392;52.508;13.468;2022-08-19T05:39:30;481.20;;;263.90;;
8562;SDS011;16392;52.508;13.468;2022-08-19T05:41:59;481.08;;;268.65;;
8562;SDS011;16392;52.508;13.468;2022-08-19T05:44:28;482.55;;;271.02;;
8562;SDS011;16392;52.508;13.468;2022-08-19T05:46:56;483.58;;;279.63;;
8562;SDS011;16392;52.508;13.468;2022-08-19T05:49:24;493.70;;;303.83;;
8562;SDS011;16392;52.508;13.468;2022-08-19T05:51:52;498.42;;;315.95;;
8562;SDS011;16392;52.508;13.468;2022-08-19T05:54:21;490.50;;;290.23;;
8562;SDS011;16392;52.508;13.468;2022-08-19T05:56:49;492.65;;;305.73;;
8562;SDS011;16392;52.508;13.468;2022-08-19T05:59:17;490.33;;;294.48;;
8562;SDS011;16392;52.508;13.468;2022-08-19T06:01:46;493.88;;;294.42;;
8562;SDS011;16392;52.508;13.468;2022-08-19T06:04:15;491.67;;;297.13;;
8562;SDS011;16392;52.508;13.468;2022-08-19T06:06:43;487.00;;;289.85;;
8562;SDS011;16392;52.508;13.468;2022-08-19T06:09:11;492.33;;;301.40;;
8562;SDS011;16392;52.508;13.468;2022-08-19T06:11:40;488.17;;;279.65;;
8562;SDS011;16392;52.508;13.468;2022-08-19T06:14:09;492.77;;;297.05;;
8562;SDS011;16392;52.508;13.468;2022-08-19T06:16:38;483.55;;;268.17;;
8562;SDS011;16392;52.508;13.468;2022-08-19T06:19:07;491.23;;;282.75;;
8562;SDS011;16392;52.508;13.468;2022-08-19T06:21:38;485.42;;;276.65;;
8562;SDS011;16392;52.508;13.468;2022-08-19T06:24:06;516.78;;;275.23;;
8562;SDS011;16392;52.508;13.468;2022-08-19T06:26:35;484.17;;;269.65;;
8562;SDS011;16392;52.508;13.468;2022-08-19T06:29:04;488.35;;;274.75;;
8562;SDS011;16392;52.508;13.468;2022-08-19T06:31:32;492.38;;;279.63;;
8562;SDS011;16392;52.508;13.468;2022-08-19T06:34:01;492.45;;;290.05;;
8562;SDS011;16392;52.508;13.468;2022-08-19T06:36:30;493.67;;;298.05;;
8562;SDS011;16392;52.508;13.468;2022-08-19T06:38:59;489.90;;;280.08;;
8562;SDS011;16392;52.508;13.468;2022-08-19T06:41:27;494.40;;;302.55;;
8562;SDS011;16392;52.508;13.468;2022-08-19T06:43:55;497.67;;;309.75;;
8562;SDS011;16392;52.508;13.468;2022-08-19T06:46:23;498.70;;;311.17;;
8562;SDS011;16392;52.508;13.468;2022-08-19T06:48:49;495.70;;;310.92;;
8562;SDS011;16392;52.508;13.468;2022-08-19T06:51:18;494.63;;;301.38;;
8562;SDS011;16392;52.508;13.468;2022-08-19T06:53:46;497.23;;;314.40;;
8562;SDS011;16392;52.508;13.468;2022-08-19T06:56:14;499.75;;;316.85;;
8562;SDS011;16392;52.508;13.468;2022-08-19T06:58:42;499.90;;;326.40;;
8562;SDS011;16392;52.508;13.468;2022-08-19T07:01:09;501.05;;;324.17;;
8562;SDS011;16392;52.508;13.468;2022-08-19T07:03:37;503.10;;;333.58;;
8562;SDS011;16392;52.508;13.468;2022-08-19T07:06:05;507.42;;;344.33;;
8562;SDS011;16392;52.508;13.468;2022-08-19T07:08:35;502.17;;;335.10;;
8562;SDS011;16392;52.508;13.468;2022-08-19T07:11:05;511.77;;;354.95;;
8562;SDS011;16392;52.508;13.468;2022-08-19T07:13:32;503.08;;;340.50;;
8562;SDS011;16392;52.508;13.468;2022-08-19T07:16:02;504.70;;;331.48;;
8562;SDS011;16392;52.508;13.468;2022-08-19T07:18:30;499.63;;;333.27;;
8562;SDS011;16392;52.508;13.468;2022-08-19T07:21:03;496.30;;;328.73;;
8562;SDS011;16392;52.508;13.468;2022-08-19T07:23:30;500.00;;;332.20;;
8562;SDS011;16392;52.508;13.468;2022-08-19T07:25:57;502.42;;;327.33;;
8562;SDS011;16392;52.508;13.468;2022-08-19T07:28:24;505.95;;;342.92;;
8562;SDS011;16392;52.508;13.468;2022-08-19T07:30:51;496.48;;;328.65;;
8562;SDS011;16392;52.508;13.468;2022-08-19T07:33:17;497.13;;;333.30;;
8562;SDS011;16392;52.508;13.468;2022-08-19T07:35:44;497.10;;;321.77;;
8562;SDS011;16392;52.508;13.468;2022-08-19T07:38:12;493.13;;;316.42;;
8562;SDS011;16392;52.508;13.468;2022-08-19T07:40:40;498.10;;;324.42;;
8562;SDS011;16392;52.508;13.468;2022-08-19T07:43:08;509.73;;;342.67;;
8562;SDS011;16392;52.508;13.468;2022-08-19T07:45:35;494.70;;;320.25;;
8562;SDS011;16392;52.508;13.468;2022-08-19T07:48:01;502.13;;;321.95;;
8562;SDS011;16392;52.508;13.468;2022-08-19T07:50:29;504.80;;;345.92;;
8562;SDS011;16392;52.508;13.468;2022-08-19T07:52:55;498.77;;;323.40;;
8562;SDS011;16392;52.508;13.468;2022-08-19T07:55:24;505.65;;;344.17;;
8562;SDS011;16392;52.508;13.468;2022-08-19T07:57:51;503.77;;;330.65;;
8562;SDS011;16392;52.508;13.468;2022-08-19T08:00:18;509.42;;;363.50;;
8562;SDS011;16392;52.508;13.468;2022-08-19T08:02:45;508.90;;;354.88;;
8562;SDS011;16392;52.508;13.468;2022-08-19T08:05:12;509.83;;;355.58;;
8562;SDS011;16392;52.508;13.468;2022-08-19T08:07:56;508.23;;;358.98;;
8562;SDS011;16392;52.508;13.468;2022-08-19T08:10:44;505.65;;;342.70;;
8562;SDS011;16392;52.508;13.468;2022-08-19T08:13:10;507.13;;;346.83;;
8562;SDS011;16392;52.508;13.468;2022-08-19T08:15:37;507.83;;;357.33;;
8562;SDS011;16392;52.508;13.468;2022-08-19T08:18:04;509.25;;;353.60;;
8562;SDS011;16392;52.508;13.468;2022-08-19T08:20:31;514.35;;;374.95;;
8562;SDS011;16392;52.508;13.468;2022-08-19T08:22:58;515.55;;;367.38;;
8562;SDS011;16392;52.508;13.468;2022-08-19T08:25:43;516.97;;;378.65;;
8562;SDS011;16392;52.508;13.468;2022-08-19T08:28:10;521.78;;;405.08;;
8562;SDS011;16392;52.508;13.468;2022-08-19T08:30:36;518.90;;;395.23;;
8562;SDS011;16392;52.508;13.468;2022-08-19T08:33:06;519.78;;;400.13;;
8562;SDS011;16392;52.508;13.468;2022-08-19T08:35:32;530.40;;;431.80;;
8562;SDS011;16392;52.508;13.468;2022-08-19T08:37:59;528.30;;;452.30;;
8562;SDS011;16392;52.508;13.468;2022-08-19T08:40:29;530.38;;;464.15;;
8562;SDS011;16392;52.508;13.468;2022-08-19T08:43:06;552.38;;;492.80;;
8562;SDS011;16392;52.508;13.468;2022-08-19T08:45:38;580.78;;;520.55;;
8562;SDS011;16392;52.508;13.468;2022-08-19T08:48:14;599.88;;;539.28;;
8562;SDS011;16392;52.508;13.468;2022-08-19T08:50:46;614.47;;;553.83;;
8562;SDS011;16392;52.508;13.468;2022-08-19T08:53:16;592.40;;;531.97;;
8562;SDS011;16392;52.508;13.468;2022-08-19T08:55:44;580.42;;;520.15;;
8562;SDS011;16392;52.508;13.468;2022-08-19T08:58:13;569.58;;;509.83;;
8562;SDS011;16392;52.508;13.468;2022-08-19T09:00:45;552.20;;;492.88;;
8562;SDS011;16392;52.508;13.468;2022-08-19T09:03:18;576.65;;;516.63;;
8562;SDS011;16392;52.508;13.468;2022-08-19T09:05:49;567.80;;;508.08;;
8562;SDS011;16392;52.508;13.468;2022-08-19T09:08:25;541.42;;;482.13;;
8562;SDS011;16392;52.508;13.468;2022-08-19T09:10:58;563.95;;;503.92;;
8562;SDS011;16392;52.508;13.468;2022-08-19T09:13:33;553.58;;;494.10;;
8562;SDS011;16392;52.508;13.468;2022-08-19T09:16:08;567.78;;;507.75;;
8562;SDS011;16392;52.508;13.468;2022-08-19T09:18:39;573.30;;;513.22;;
8562;SDS011;16392;52.508;13.468;2022-08-19T09:21:08;575.33;;;515.58;;
8562;SDS011;16392;52.508;13.468;2022-08-19T09:23:35;586.72;;;526.55;;
8562;SDS011;16392;52.508;13.468;2022-08-19T09:26:06;596.72;;;536.47;;
8562;SDS011;16392;52.508;13.468;2022-08-19T09:28:35;608.28;;;547.67;;
8562;SDS011;16392;52.508;13.468;2022-08-19T09:31:02;628.28;;;567.17;;
8562;SDS011;16392;52.508;13.468;2022-08-19T09:33:29;624.70;;;563.80;;
8562;SDS011;16392;52.508;13.468;2022-08-19T09:36:04;622.08;;;561.00;;
8562;SDS011;16392;52.508;13.468;2022-08-19T09:38:32;617.20;;;556.75;;
8562;SDS011;16392;52.508;13.468;2022-08-19T09:41:03;625.85;;;564.60;;
8562;SDS011;16392;52.508;13.468;2022-08-19T09:43:31;617.65;;;556.30;;
8562;SDS011;16392;52.508;13.468;2022-08-19T09:46:00;617.28;;;556.80;;
8562;SDS011;16392;52.508;13.468;2022-08-19T09:48:27;617.42;;;556.78;;
8562;SDS011;16392;52.508;13.468;2022-08-19T09:50:53;603.92;;;543.50;;
8562;SDS011;16392;52.508;13.468;2022-08-19T09:53:20;627.00;;;566.22;;
8562;SDS011;16392;52.508;13.468;2022-08-19T09:55:48;617.92;;;557.08;;
8562;SDS011;16392;52.508;13.468;2022-08-19T09:58:15;632.42;;;571.20;;
8562;SDS011;16392;52.508;13.468;2022-08-19T10:00:41;594.58;;;534.08;;
8562;SDS011;16392;52.508;13.468;2022-08-19T10:03:09;607.75;;;546.90;;
8562;SDS011;16392;52.508;13.468;2022-08-19T10:05:36;596.45;;;536.28;;
8562;SDS011;16392;52.508;13.468;2022-08-19T10:08:15;608.53;;;548.13;;
8562;SDS011;16392;52.508;13.468;2022-08-19T10:10:44;610.35;;;549.55;;
8562;SDS011;16392;52.508;13.468;2022-08-19T10:13:12;631.60;;;570.50;;
8562;SDS011;16392;52.508;13.468;2022-08-19T10:15:39;606.90;;;546.58;;
8562;SDS011;16392;52.508;13.468;2022-08-19T10:18:06;596.08;;;535.58;;
8562;SDS011;16392;52.508;13.468;2022-08-19T10:20:34;624.97;;;564.10;;
8562;SDS011;16392;52.508;13.468;2022-08-19T10:23:02;619.20;;;558.08;;
8562;SDS011;16392;52.508;13.468;2022-08-19T10:25:29;627.45;;;566.15;;
8562;SDS011;16392;52.508;13.468;2022-08-19T10:27:58;610.13;;;549.58;;
8562;SDS011;16392;52.508;13.468;2022-08-19T10:30:25;611.60;;;550.80;;
8562;SDS011;16392;52.508;13.468;2022-08-19T10:32:52;602.00;;;541.65;;
8562;SDS011;16392;52.508;13.468;2022-08-19T10:35:19;616.97;;;555.95;;
8562;SDS011;16392;52.508;13.468;2022-08-19T10:37:47;600.67;;;540.15;;
8562;SDS011;16392;52.508;13.468;2022-08-19T10:40:14;601.83;;;541.78;;
8562;SDS011;16392;52.508;13.468;2022-08-19T10:42:41;619.00;;;558.33;;
8562;SDS011;16392;52.508;13.468;2022-08-19T10:45:08;605.05;;;544.78;;
8562;SDS011;16392;52.508;13.468;2022-08-19T10:47:36;622.40;;;561.53;;
8562;SDS011;16392;52.508;13.468;2022-08-19T10:50:03;641.47;;;580.25;;
8562;SDS011;16392;52.508;13.468;2022-08-19T10:52:49;629.70;;;568.17;;
8562;SDS011;16392;52.508;13.468;2022-08-19T10:55:17;604.80;;;544.40;;
8562;SDS011;16392;52.508;13.468;2022-08-19T10:58:02;612.47;;;551.60;;
8562;SDS011;16392;52.508;13.468;2022-08-19T11:00:29;602.53;;;542.22;;
8562;SDS011;16392;52.508;13.468;2022-08-19T11:02:57;600.65;;;540.17;;
8562;SDS011;16392;52.508;13.468;2022-08-19T11:05:24;594.38;;;534.25;;
8562;SDS011;16392;52.508;13.468;2022-08-19T11:07:51;591.33;;;531.08;;
8562;SDS011;16392;52.508;13.468;2022-08-19T11:10:18;579.80;;;520.13;;
8562;SDS011;16392;52.508;13.468;2022-08-19T11:12:45;597.88;;;537.50;;
8562;SDS011;16392;52.508;13.468;2022-08-19T11:15:13;595.40;;;535.15;;
8562;SDS011;16392;52.508;13.468;2022-08-19T11:17:39;582.10;;;522.08;;
8562;SDS011;16392;52.508;13.468;2022-08-19T11:20:08;552.58;;;493.48;;
8562;SDS011;16392;52.508;13.468;2022-08-19T11:22:36;584.17;;;524.10;;
8562;SDS011;16392;52.508;13.468;2022-08-19T11:25:04;562.45;;;502.73;;
8562;SDS011;16392;52.508;13.468;2022-08-19T11:27:32;550.55;;;490.88;;
8562;SDS011;16392;52.508;13.468;2022-08-19T11:29:58;531.90;;;470.48;;
8562;SDS011;16392;52.508;13.468;2022-08-19T11:32:25;558.50;;;498.75;;
8562;SDS011;16392;52.508;13.468;2022-08-19T11:34:52;540.47;;;481.52;;
8562;SDS011;16392;52.508;13.468;2022-08-19T11:37:19;555.58;;;495.77;;
8562;SDS011;16392;52.508;13.468;2022-08-19T11:39:46;550.63;;;491.35;;
8562;SDS011;16392;52.508;13.468;2022-08-19T11:42:14;541.90;;;482.48;;
8562;SDS011;16392;52.508;13.468;2022-08-19T11:45:01;541.42;;;482.25;;
8562;SDS011;16392;52.508;13.468;2022-08-19T11:47:29;550.38;;;491.38;;
8562;SDS011;16392;52.508;13.468;2022-08-19T11:49:56;562.97;;;503.45;;
8562;SDS011;16392;52.508;13.468;2022-08-19T11:52:23;561.85;;;501.83;;
8562;SDS011;16392;52.508;13.468;2022-08-19T11:54:50;569.30;;;509.80;;
8562;SDS011;16392;52.508;13.468;2022-08-19T11:57:18;583.92;;;523.85;;
8562;SDS011;16392;52.508;13.468;2022-08-19T11:59:47;586.10;;;526.28;;
8562;SDS011;16392;52.508;13.468;2022-08-19T12:02:15;620.80;;;560.17;;
8562;SDS011;16392;52.508;13.468;2022-08-19T12:04:41;581.40;;;521.83;;
8562;SDS011;16392;52.508;13.468;2022-08-19T12:07:08;607.45;;;546.88;;
8562;SDS011;16392;52.508;13.468;2022-08-19T12:09:35;600.47;;;540.05;;
8562;SDS011;16392;52.508;13.468;2022-08-19T12:12:04;612.05;;;551.50;;
8562;SDS011;16392;52.508;13.468;2022-08-19T12:14:32;602.00;;;541.92;;
8562;SDS011;16392;52.508;13.468;2022-08-19T12:17:00;604.55;;;544.17;;
8562;SDS011;16392;52.508;13.468;2022-08-19T12:19:27;600.85;;;540.83;;
8562;SDS011;16392;52.508;13.468;2022-08-19T12:21:54;593.67;;;533.83;;
8562;SDS011;16392;52.508;13.468;2022-08-19T12:24:25;606.97;;;546.75;;
8562;SDS011;16392;52.508;13.468;2022-08-19T12:26:52;610.22;;;549.67;;
8562;SDS011;16392;52.508;13.468;2022-08-19T12:29:21;613.00;;;552.35;;
8562;SDS011;16392;52.508;13.468;2022-08-19T12:31:50;623.17;;;562.67;;
8562;SDS011;16392;52.508;13.468;2022-08-19T12:34:16;623.25;;;562.72;;
8562;SDS011;16392;52.508;13.468;2022-08-19T12:36:44;614.17;;;553.72;;
8562;SDS011;16392;52.508;13.468;2022-08-19T12:39:14;614.22;;;553.78;;
8562;SDS011;16392;52.508;13.468;2022-08-19T12:41:40;614.42;;;554.45;;
8562;SDS011;16392;52.508;13.468;2022-08-19T12:44:07;608.45;;;548.33;;
8562;SDS011;16392;52.508;13.468;2022-08-19T12:46:34;607.90;;;547.67;;
8562;SDS011;16392;52.508;13.468;2022-08-19T12:49:01;591.22;;;531.47;;
8562;SDS011;16392;52.508;13.468;2022-08-19T12:51:28;596.35;;;536.35;;
8562;SDS011;16392;52.508;13.468;2022-08-19T12:53:56;569.47;;;510.27;;
8562;SDS011;16392;52.508;13.468;2022-08-19T12:56:23;590.60;;;531.03;;
8562;SDS011;16392;52.508;13.468;2022-08-19T12:58:49;599.20;;;539.00;;
8562;SDS011;16392;52.508;13.468;2022-08-19T13:01:17;579.40;;;519.92;;
8562;SDS011;16392;52.508;13.468;2022-08-19T13:03:44;593.83;;;533.90;;
8562;SDS011;16392;52.508;13.468;2022-08-19T13:06:13;594.88;;;534.55;;
8562;SDS011;16392;52.508;13.468;2022-08-19T13:08:40;578.47;;;519.13;;
8562;SDS011;16392;52.508;13.468;2022-08-19T13:11:09;603.63;;;543.30;;
8562;SDS011;16392;52.508;13.468;2022-08-19T13:13:37;621.20;;;560.72;;
8562;SDS011;16392;52.508;13.468;2022-08-19T13:16:06;607.80;;;547.58;;
8562;SDS011;16392;52.508;13.468;2022-08-19T13:18:33;628.50;;;567.53;;
8562;SDS011;16392;52.508;13.468;2022-08-19T13:21:01;628.05;;;567.35;;
8562;SDS011;16392;52.508;13.468;2022-08-19T13:23:30;634.50;;;573.60;;
8562;SDS011;16392;52.508;13.468;2022-08-19T13:25:57;638.83;;;577.95;;
8562;SDS011;16392;52.508;13.468;2022-08-19T13:28:24;640.97;;;579.90;;
8562;SDS011;16392;52.508;13.468;2022-08-19T13:30:51;631.65;;;570.92;;
8562;SDS011;16392;52.508;13.468;2022-08-19T13:33:35;623.95;;;563.40;;
8562;SDS011;16392;52.508;13.468;2022-08-19T13:36:02;627.28;;;566.30;;
8562;SDS011;16392;52.508;13.468;2022-08-19T13:38:33;606.60;;;546.28;;
8562;SDS011;16392;52.508;13.468;2022-08-19T13:41:03;628.40;;;567.60;;
8562;SDS011;16392;52.508;13.468;2022-08-19T13:43:31;646.00;;;584.50;;
8562;SDS011;16392;52.508;13.468;2022-08-19T13:45:58;654.33;;;592.83;;
8562;SDS011;16392;52.508;13.468;2022-08-19T13:48:25;630.70;;;569.95;;
8562;SDS011;16392;52.508;13.468;2022-08-19T13:50:52;644.50;;;583.17;;
8562;SDS011;16392;52.508;13.468;2022-08-19T13:53:19;631.50;;;570.53;;
8562;SDS011;16392;52.508;13.468;2022-08-19T13:55:47;639.95;;;578.92;;
8562;SDS011;16392;52.508;13.468;2022-08-19T13:58:15;637.15;;;575.85;;
8562;SDS011;16392;52.508;13.468;2022-08-19T14:00:43;619.08;;;558.70;;
8562;SDS011;16392;52.508;13.468;2022-08-19T14:03:10;626.67;;;565.45;;